Time;durP1;ratioP1;P1;durP2;ratioP2;P2;SDS_P1;SDS_P2;PMS_P1;PMS_P2;Temp;Humidity;BMP_temperature;BMP_pressure;BME280_temperature;BME280_humidity;BME280_pressure;Samples;Min_cycle;Max_cycle;Signal;HPM_P1;HPM_P2
2020/12/18 00:01:59;;;;;;;3.28;2.53;;;;;;;22.73;43.77;99866.31;4955391;28;20035;-80
2020/12/18 00:04:25;;;;;;;5.82;2.50;;;;;;;22.61;43.98;99865.66;4955715;28;20386;-80
2020/12/18 00:06:51;;;;;;;4.22;2.58;;;;;;;22.64;43.79;99864.81;4954822;28;20371;-80
2020/12/18 00:09:16;;;;;;;5.05;2.35;;;;;;;22.59;44.26;99862.47;4955232;28;20482;-79
2020/12/18 00:11:42;;;;;;;3.13;2.20;;;;;;;22.60;44.06;99863.28;4955390;28;20494;-80
2020/12/18 00:14:07;;;;;;;3.50;1.92;;;;;;;22.63;44.09;99863.25;4955272;28;20031;-80
2020/12/18 00:16:34;;;;;;;2.42;1.92;;;;;;;22.58;44.15;99865.69;4955268;28;20106;-80
2020/12/18 00:18:59;;;;;;;4.35;2.35;;;;;;;22.57;43.99;99884.38;4955267;28;20386;-80
2020/12/18 00:21:25;;;;;;;3.47;2.30;;;;;;;22.55;43.77;99872.09;4955200;28;20031;-82
2020/12/18 00:23:52;;;;;;;4.85;2.50;;;;;;;22.51;43.56;99877.69;4955177;28;20126;-79
2020/12/18 00:26:18;;;;;;;3.30;2.28;;;;;;;22.41;43.84;99873.03;4969948;28;20505;-80
2020/12/18 00:28:45;;;;;;;5.45;2.70;;;;;;;22.33;43.81;99872.31;4955110;28;20031;-80
2020/12/18 00:31:11;;;;;;;3.95;2.42;;;;;;;22.22;44.01;99876.41;4955053;28;20031;-80
2020/12/18 00:33:36;;;;;;;7.53;2.92;;;;;;;22.26;43.84;99877.19;4954902;28;20035;-80
2020/12/18 00:36:03;;;;;;;5.72;2.47;;;;;;;22.27;43.92;99875.97;4953723;28;20035;-80
2020/12/18 00:38:30;;;;;;;4.53;2.67;;;;;;;22.22;43.71;99898.66;4954952;28;20058;-80
2020/12/18 00:40:55;;;;;;;3.10;2.25;;;;;;;22.11;43.98;99902.34;4954817;28;20077;-80
2020/12/18 00:43:21;;;;;;;4.00;2.33;;;;;;;22.17;43.91;99902.69;4954839;28;20054;-80
2020/12/18 00:45:46;;;;;;;4.93;2.17;;;;;;;22.16;43.98;99901.13;4954777;28;20475;-81
2020/12/18 00:48:12;;;;;;;3.58;2.63;;;;;;;22.15;43.97;99902.34;4954731;28;20375;-80
2020/12/18 00:50:38;;;;;;;3.45;2.33;;;;;;;22.37;43.52;99905.69;4954818;28;20062;-80
2020/12/18 00:53:04;;;;;;;4.97;2.95;;;;;;;22.35;43.26;99910.88;4954668;28;20023;-80
2020/12/18 00:55:31;;;;;;;4.10;2.33;;;;;;;22.17;43.64;99918.59;4954621;29;20035;-80
2020/12/18 00:57:56;;;;;;;3.65;2.42;;;;;;;22.17;43.53;99918.59;4954575;28;20031;-80
2020/12/18 01:00:22;;;;;;;3.20;2.25;;;;;;;22.15;43.60;99914.25;4954460;28;20047;-80
2020/12/18 01:02:48;;;;;;;6.25;2.03;;;;;;;22.07;43.65;99921.06;4954700;28;20117;-80
2020/12/18 01:05:15;;;;;;;2.90;2.28;;;;;;;22.07;43.61;99925.81;4954715;28;20060;-80
2020/12/18 01:07:40;;;;;;;3.15;2.33;;;;;;;22.05;43.64;99917.06;4954532;28;20151;-80
2020/12/18 01:10:06;;;;;;;7.45;2.67;;;;;;;22.21;43.07;99917.34;4969544;28;20539;-80
2020/12/18 01:12:32;;;;;;;4.38;2.25;;;;;;;22.08;43.49;99921.88;4954502;28;20038;-80
2020/12/18 01:14:57;;;;;;;3.22;1.92;;;;;;;22.05;43.58;99923.44;4969510;28;20383;-79
2020/12/18 01:17:23;;;;;;;4.55;2.60;;;;;;;22.04;43.52;99923.84;4953212;29;20115;-80
2020/12/18 01:19:49;;;;;;;2.60;2.13;;;;;;;22.01;43.52;99917.13;4972233;28;20557;-80
2020/12/18 01:22:15;;;;;;;2.70;1.80;;;;;;;21.92;43.77;99914.03;4958364;28;20046;-80
2020/12/18 01:24:40;;;;;;;4.57;2.13;;;;;;;21.98;43.58;99917.94;4973322;28;20051;-80
2020/12/18 01:27:06;;;;;;;5.28;2.20;;;;;;;22.00;43.18;99904.41;4958048;28;20454;-80
2020/12/18 01:29:31;;;;;;;5.00;1.90;;;;;;;21.95;43.28;99896.50;4958163;28;20512;-80
2020/12/18 01:31:57;;;;;;;2.95;2.08;;;;;;;21.87;43.34;99893.00;4958082;28;20474;-80
2020/12/18 01:34:23;;;;;;;2.45;1.70;;;;;;;21.81;43.43;99888.28;4958018;28;20059;-80
2020/12/18 01:36:48;;;;;;;2.92;2.10;;;;;;;21.76;43.31;99906.19;4958041;28;20381;-80
2020/12/18 01:39:14;;;;;;;3.67;2.22;;;;;;;21.70;43.34;99913.41;4957964;28;20071;-80
2020/12/18 01:41:40;;;;;;;4.93;2.25;;;;;;;21.66;43.37;99909.06;4956792;28;20023;-80
2020/12/18 01:44:05;;;;;;;4.05;2.05;;;;;;;21.62;43.17;99911.09;4958009;28;20023;-80
2020/12/18 01:46:32;;;;;;;5.10;1.98;;;;;;;21.60;43.18;99903.91;4958122;28;20019;-80
2020/12/18 01:48:59;;;;;;;4.57;2.42;;;;;;;21.53;43.24;99915.06;4957794;28;20023;-80
2020/12/18 01:51:26;;;;;;;4.68;2.30;;;;;;;21.48;43.43;99912.75;4957750;28;20111;-80
2020/12/18 01:53:52;;;;;;;2.40;1.88;;;;;;;21.42;43.47;99905.25;4957823;28;20038;-80
2020/12/18 01:56:19;;;;;;;4.38;2.03;;;;;;;21.40;43.35;99902.09;4957788;28;20093;-80
2020/12/18 01:58:48;;;;;;;5.55;2.03;;;;;;;21.39;43.30;99903.28;4957734;28;20027;-80
2020/12/18 02:01:13;;;;;;;4.18;2.40;;;;;;;21.36;43.37;99896.53;4957467;28;20091;-80
2020/12/18 02:03:39;;;;;;;4.25;2.10;;;;;;;21.32;43.40;99890.22;4957691;28;20431;-80
2020/12/18 02:06:15;;;;;;;5.35;2.47;;;;;;;21.23;43.47;99887.84;4957576;28;20031;-79
2020/12/18 02:08:42;;;;;;;3.85;2.47;;;;;;;21.24;43.13;99891.44;4957604;28;20023;-79
2020/12/18 02:11:14;;;;;;;4.55;2.42;;;;;;;21.23;43.23;99900.94;4972322;28;20023;-80
2020/12/18 02:13:39;;;;;;;3.90;2.63;;;;;;;21.20;43.38;99904.53;4957563;28;20081;-79
2020/12/18 02:16:05;;;;;;;4.72;2.83;;;;;;;21.27;43.14;99885.88;4956216;28;20118;-80
2020/12/18 02:18:31;;;;;;;7.07;2.45;;;;;;;21.33;42.71;99897.38;4957275;28;20054;-79
2020/12/18 02:20:57;;;;;;;6.25;2.40;;;;;;;21.30;42.80;99906.50;4957201;28;20034;-80
2020/12/18 02:23:23;;;;;;;2.90;2.22;;;;;;;21.09;43.45;99895.50;4957165;28;20023;-80
2020/12/18 02:26:09;;;;;;;5.43;2.10;;;;;;;21.05;43.40;99887.16;4957056;28;20031;-80
2020/12/18 02:28:47;;;;;;;2.97;1.88;;;;;;;21.16;43.03;99898.19;4957051;28;20027;-82
2020/12/18 02:31:14;;;;;;;4.13;2.35;;;;;;;21.16;43.01;99903.75;4956443;28;20131;-79
2020/12/18 02:33:41;;;;;;;3.33;2.30;;;;;;;21.08;43.16;99910.53;4957171;28;20031;-79
2020/12/18 02:36:07;;;;;;;3.85;2.15;;;;;;;21.06;43.17;99917.31;4955867;28;20452;-80
2020/12/18 02:38:34;;;;;;;4.50;2.85;;;;;;;21.01;43.29;99922.50;4957104;28;20031;-80
2020/12/18 02:41:00;;;;;;;3.80;2.25;;;;;;;20.84;43.43;99915.03;4957002;28;20102;-80
2020/12/18 02:43:26;;;;;;;3.97;2.50;;;;;;;20.94;43.30;99908.66;4957035;28;20031;-79
2020/12/18 02:45:52;;;;;;;2.33;1.75;;;;;;;20.96;43.11;99901.50;4971747;28;20038;-79
2020/12/18 02:48:17;;;;;;;2.85;2.00;;;;;;;20.97;43.03;99893.94;4956851;28;20028;-79
2020/12/18 02:50:46;;;;;;;2.47;1.88;;;;;;;20.96;43.12;99890.38;4957111;28;20067;-80
2020/12/18 02:53:17;;;;;;;4.43;1.88;;;;;;;21.02;42.95;99868.53;4956816;28;20386;-80
2020/12/18 02:55:43;;;;;;;4.55;1.92;;;;;;;20.95;43.18;99847.16;4955555;29;20032;-80
2020/12/18 02:58:09;;;;;;;3.25;1.88;;;;;;;20.87;43.30;99853.94;4956807;28;20035;-80
2020/12/18 03:00:36;;;;;;;4.47;1.70;;;;;;;20.81;43.46;99855.53;4956397;28;20164;-80
2020/12/18 03:03:04;;;;;;;3.72;1.80;;;;;;;20.77;43.52;99838.88;4956770;28;20430;-79
2020/12/18 03:05:30;;;;;;;2.63;1.73;;;;;;;20.79;43.36;99841.28;4956477;28;20518;-80
2020/12/18 03:07:56;;;;;;;4.00;1.95;;;;;;;20.74;43.48;99842.47;4971118;28;20078;-80
2020/12/18 03:10:22;;;;;;;3.25;1.88;;;;;;;20.76;43.43;99837.31;4956369;28;20031;-80
2020/12/18 03:12:48;;;;;;;4.10;1.50;;;;;;;20.71;43.43;99823.09;4971126;28;20035;-80
2020/12/18 03:15:13;;;;;;;4.55;1.90;;;;;;;20.72;43.24;99816.34;4954995;28;20027;-80
2020/12/18 03:17:39;;;;;;;5.57;1.75;;;;;;;20.81;42.95;99813.13;4956256;28;20482;-81
2020/12/18 03:20:05;;;;;;;8.10;2.58;;;;;;;20.89;42.46;99815.44;4956079;28;20032;-79
2020/12/18 03:22:31;;;;;;;5.47;2.00;;;;;;;20.80;42.69;99823.44;4956075;28;20472;-80
2020/12/18 03:25:00;;;;;;;3.50;1.60;;;;;;;20.69;42.87;99817.13;4956051;28;20027;-80
2020/12/18 03:27:26;;;;;;;4.70;1.70;;;;;;;20.62;42.95;99828.25;4954772;28;20451;-80
2020/12/18 03:29:52;;;;;;;4.55;1.42;;;;;;;20.48;43.31;99829.13;4954755;28;20062;-80
2020/12/18 03:32:17;;;;;;;3.78;1.70;;;;;;;20.46;43.04;99837.03;4955985;28;20110;-79
2020/12/18 03:34:43;;;;;;;2.70;1.30;;;;;;;20.48;43.05;99849.34;4956008;28;20066;-80
2020/12/18 03:37:09;;;;;;;6.10;1.58;;;;;;;20.46;42.98;99862.78;4954938;28;20035;-79
2020/12/18 03:39:35;;;;;;;5.60;1.90;;;;;;;20.38;43.00;99863.97;4954469;28;20110;-79
2020/12/18 03:42:01;;;;;;;4.82;1.88;;;;;;;20.36;42.93;99868.34;4955455;28;20027;-79
2020/12/18 03:44:27;;;;;;;5.65;1.73;;;;;;;20.23;43.37;99866.00;4955661;28;20031;-79
2020/12/18 03:46:52;;;;;;;4.22;1.70;;;;;;;20.22;43.38;99861.66;4955234;28;20035;-80
2020/12/18 03:49:18;;;;;;;4.32;1.70;;;;;;;20.24;43.38;99853.72;4955434;28;20462;-80
2020/12/18 03:51:44;;;;;;;3.97;1.85;;;;;;;20.30;43.18;99848.56;4955682;28;20492;-80
2020/12/18 03:54:09;;;;;;;4.20;1.73;;;;;;;20.21;43.20;99859.28;4955675;28;20110;-80
2020/12/18 03:56:35;;;;;;;2.50;1.33;;;;;;;20.16;43.28;99851.34;4956243;28;20101;-81
2020/12/18 03:59:01;;;;;;;5.22;1.92;;;;;;;20.06;43.54;99841.88;4970385;28;20473;-80
2020/12/18 04:01:26;;;;;;;3.15;1.90;;;;;;;20.07;43.44;99837.13;4966671;28;20050;-82
2020/12/18 04:03:52;;;;;;;2.20;1.80;;;;;;;20.09;43.30;99829.97;4968415;28;20034;-82
2020/12/18 04:06:17;;;;;;;4.60;1.75;;;;;;;20.06;43.23;99838.31;4974425;28;20102;-82
2020/12/18 04:08:43;;;;;;;6.93;2.05;;;;;;;20.00;43.24;99821.28;4974528;28;20042;-80
2020/12/18 04:11:09;;;;;;;5.53;1.90;;;;;;;20.02;43.14;99820.88;4974635;28;20023;-79
2020/12/18 04:13:35;;;;;;;5.00;1.67;;;;;;;20.03;43.15;99808.63;4974612;28;20105;-79
2020/12/18 04:16:01;;;;;;;2.95;1.52;;;;;;;20.02;43.11;99807.00;4974577;28;20115;-80
2020/12/18 04:18:26;;;;;;;4.20;1.70;;;;;;;19.65;44.10;99814.59;4974787;28;20054;-80
2020/12/18 04:20:52;;;;;;;4.15;1.90;;;;;;;19.77;43.59;99820.91;4974620;28;20497;-80
2020/12/18 04:23:18;;;;;;;5.18;1.67;;;;;;;19.71;43.78;99819.72;4974441;28;20031;-80
2020/12/18 04:25:44;;;;;;;3.55;2.03;;;;;;;19.74;43.71;99818.94;4974459;28;20022;-80
2020/12/18 04:28:10;;;;;;;7.85;2.15;;;;;;;19.64;43.95;99840.69;4972939;28;20500;-80
2020/12/18 04:30:35;;;;;;;5.00;1.90;;;;;;;19.56;44.13;99830.78;4973130;28;20034;-80
2020/12/18 04:33:01;;;;;;;5.50;2.03;;;;;;;19.56;43.76;99814.16;4973058;28;20030;-80
2020/12/18 04:35:26;;;;;;;10.13;2.25;;;;;;;19.62;43.77;99807.06;4974341;28;20023;-80
2020/12/18 04:37:52;;;;;;;10.05;2.65;;;;;;;19.51;44.05;99789.63;4974277;28;20370;-79
2020/12/18 04:40:18;;;;;;;7.68;2.30;;;;;;;19.65;43.74;99786.09;4974104;28;20034;-80
2020/12/18 04:42:46;;;;;;;11.13;2.47;;;;;;;19.54;43.96;99790.81;4973931;28;20414;-80
2020/12/18 04:45:13;;;;;;;7.32;2.67;;;;;;;19.59;44.12;99777.38;4966027;28;20059;-83
2020/12/18 04:47:46;;;;;;;3.72;2.00;;;;;;;19.66;43.78;99779.38;4970337;28;20033;-80
2020/12/18 04:50:12;;;;;;;6.38;2.33;;;;;;;19.65;43.83;99778.56;4972729;28;20069;-81
2020/12/18 04:52:38;;;;;;;6.65;2.08;;;;;;;19.89;43.31;99776.94;4970233;28;20027;-83
2020/12/18 04:55:05;;;;;;;5.07;1.98;;;;;;;19.84;43.79;99757.16;4963801;28;20105;-81
2020/12/18 04:57:33;;;;;;;7.07;2.00;;;;;;;19.93;43.13;99749.19;4963419;28;20397;-83
2020/12/18 05:00:04;;;;;;;4.15;1.92;;;;;;;19.92;43.15;99747.63;4960726;28;20039;-80
2020/12/18 05:02:30;;;;;;;7.43;2.20;;;;;;;19.85;43.58;99742.88;4963056;28;20031;-83
2020/12/18 05:04:56;;;;;;;5.97;1.92;;;;;;;19.97;43.12;99740.91;4964187;28;20096;-83
2020/12/18 05:07:23;;;;;;;7.55;2.88;;;;;;;20.03;42.97;99730.97;4962076;28;20027;-82
2020/12/18 05:09:53;;;;;;;8.35;2.38;;;;;;;20.06;42.80;99727.41;4963032;28;20382;-83
2020/12/18 05:12:18;;;;;;;;;;;;;;;19.81;43.40;99733.81;4964370;28;20030;-81
2020/12/18 05:14:44;;;;;;;6.93;2.25;;;;;;;19.88;43.37;99725.47;4964028;28;19914;-84
2020/12/18 05:17:10;;;;;;;7.47;2.50;;;;;;;19.97;43.01;99727.03;4963019;28;20027;-83
2020/12/18 05:19:42;;;;;;;14.55;2.78;;;;;;;19.87;43.25;99726.63;4960800;28;20113;-82
2020/12/18 05:22:09;;;;;;;7.70;3.45;;;;;;;19.85;43.26;99714.38;4962772;28;20024;-83
2020/12/18 05:24:38;;;;;;;16.33;3.33;;;;;;;19.88;43.31;99702.50;4960835;28;20034;-84
2020/12/18 05:27:04;;;;;;;16.88;3.85;;;;;;;19.72;44.07;99694.59;4963783;28;20031;-83
2020/12/18 05:29:30;;;;;;;13.30;2.70;;;;;;;19.75;44.05;99702.13;4962994;28;20043;-80
2020/12/18 05:31:59;;;;;;;20.13;4.15;;;;;;;19.73;44.25;99687.91;4962000;28;20429;-82
2020/12/18 05:34:24;;;;;;;18.05;4.40;;;;;;;19.80;44.20;99674.03;4962101;28;20027;-81
2020/12/18 05:36:50;;;;;;;23.58;4.95;;;;;;;19.90;43.89;99678.72;4961799;28;20034;-80
2020/12/18 05:39:16;;;;;;;18.58;4.65;;;;;;;19.74;44.40;99678.38;4962094;28;20101;-81
2020/12/18 05:41:44;;;;;;;13.88;3.35;;;;;;;19.77;44.52;99665.69;4963908;28;20098;-82
2020/12/18 05:44:10;;;;;;;18.65;4.60;;;;;;;19.92;44.14;99654.16;4961627;28;20138;-79
2020/12/18 05:46:39;;;;;;;18.77;3.60;;;;;;;19.69;44.87;99637.22;4961927;28;20097;-79
2020/12/18 05:49:06;;;;;;;19.38;4.38;;;;;;;19.84;44.57;99640.72;4962029;28;20367;-79
2020/12/18 05:51:36;;;;;;;28.30;4.80;;;;;;;19.90;44.38;99626.06;4962434;28;20478;-79
2020/12/18 05:54:09;;;;;;;15.18;3.70;;;;;;;19.64;45.05;99621.00;4963609;28;20023;-81
2020/12/18 05:56:35;;;;;;;22.92;5.10;;;;;;;19.88;44.38;99636.78;4963338;28;20035;-79
2020/12/18 05:59:11;;;;;;;16.52;3.88;;;;;;;19.53;45.34;99637.63;4962049;28;20057;-83
2020/12/18 06:01:55;;;;;;;18.38;4.55;;;;;;;19.33;45.99;99642.03;4963010;28;20054;-83
2020/12/18 06:04:23;;;;;;;11.73;3.40;;;;;;;19.56;45.44;99642.38;4966980;28;20066;-82
2020/12/18 06:06:49;;;;;;;21.10;4.50;;;;;;;19.57;45.53;99627.38;4967166;28;20035;-83
2020/12/18 06:09:23;;;;;;;22.38;6.32;;;;;;;19.47;45.55;99628.16;4967125;28;20522;-82
2020/12/18 06:11:49;;;;;;;18.63;3.83;;;;;;;19.59;45.48;99627.75;4968029;28;20031;-82
2020/12/18 06:14:17;;;;;;;12.07;3.58;;;;;;;19.57;45.51;99624.63;4966656;28;20062;-84
2020/12/18 06:16:47;;;;;;;20.40;3.92;;;;;;;19.51;45.85;99617.06;4967263;28;20046;-82
2020/12/18 06:19:15;;;;;;;13.00;3.47;;;;;;;19.63;45.39;99609.13;4966337;28;20031;-82
2020/12/18 06:21:49;;;;;;;11.75;3.15;;;;;;;19.65;45.38;99592.91;4958558;28;20493;-83
2020/12/18 06:24:15;;;;;;;16.23;3.35;;;;;;;19.67;45.45;99578.66;4961375;28;20405;-81
2020/12/18 06:26:41;;;;;;;8.07;2.38;;;;;;;19.59;45.81;99571.56;4966282;28;20023;-83
2020/12/18 06:29:07;;;;;;;7.07;2.00;;;;;;;19.67;45.62;99562.81;4965628;28;20102;-79
2020/12/18 06:31:34;;;;;;;9.52;1.98;;;;;;;19.60;45.70;99550.97;4964767;28;20035;-80
2020/12/18 06:34:05;;;;;;;14.73;2.72;;;;;;;19.86;45.17;99533.00;4957000;28;20054;-82
2020/12/18 06:36:53;;;;;;;10.32;2.00;;;;;;;19.75;45.57;99524.75;4954615;28;20027;-83
2020/12/18 06:39:23;;;;;;;6.65;1.90;;;;;;;20.02;44.95;99515.88;4955564;28;20375;-83
2020/12/18 06:42:12;;;;;;;7.40;2.05;;;;;;;19.66;45.72;99511.34;4965643;28;20143;-80
2020/12/18 06:44:41;;;;;;;7.82;1.77;;;;;;;19.85;45.22;99510.03;4956851;28;20085;-84
2020/12/18 06:47:12;;;;;;;8.30;1.90;;;;;;;19.92;45.27;99521.09;4967276;28;20409;-84
2020/12/18 06:50:08;;;;;;;7.82;2.25;;;;;;;19.83;45.60;99509.66;4974909;28;20107;-83
2020/12/18 06:52:47;;;;;;;7.15;1.85;;;;;;;19.88;45.63;99514.81;4958240;28;20035;-84
2020/12/18 06:55:15;;;;;;;5.80;1.50;;;;;;;19.74;46.13;99487.16;4965504;28;20052;-82
2020/12/18 06:57:41;;;;;;;10.35;2.10;;;;;;;19.72;46.56;99524.78;4965602;28;20031;-80
2020/12/18 07:00:30;;;;;;;8.07;1.52;;;;;;;19.35;47.67;99509.50;4962756;28;20086;-79
2020/12/18 07:02:57;;;;;;;6.60;1.60;;;;;;;19.26;48.06;99507.13;4955999;28;20031;-81
2020/12/18 07:05:30;;;;;;;4.47;1.33;;;;;;;19.82;46.51;99513.66;4955797;28;20031;-82
2020/12/18 07:07:58;;;;;;;7.03;1.52;;;;;;;19.56;47.43;99503.84;4955723;28;20027;-82
2020/12/18 07:10:34;;;;;;;7.32;2.08;;;;;;;19.60;47.76;99493.56;4956489;28;20027;-80
2020/12/18 07:13:00;;;;;;;2.40;1.25;;;;;;;20.02;46.57;99486.16;4956359;28;20030;-82
2020/12/18 07:15:48;;;;;;;6.43;1.40;;;;;;;20.41;45.75;99488.66;4956412;28;20035;-80
2020/12/18 07:18:23;;;;;;;5.93;1.42;;;;;;;19.96;46.85;99490.59;4956011;28;20496;-83
2020/12/18 07:20:52;;;;;;;2.15;0.90;;;;;;;19.84;47.32;99483.53;4956333;28;20059;-83
2020/12/18 07:23:19;;;;;;;1.98;1.20;;;;;;;20.00;47.21;99485.00;4956476;28;20098;-82
2020/12/18 07:25:45;;;;;;;1.77;0.85;;;;;;;20.31;46.39;99472.09;4956275;28;20031;-82
2020/12/18 07:28:12;;;;;;;5.13;1.30;;;;;;;20.24;46.81;99468.16;4955876;28;20031;-83
2020/12/18 07:30:39;;;;;;;4.40;1.50;;;;;;;20.35;46.49;99457.00;4954574;28;20023;-83
2020/12/18 07:33:06;;;;;;;3.25;1.25;;;;;;;20.06;47.52;99473.09;4955951;28;20394;-80
2020/12/18 07:35:36;;;;;;;3.28;1.08;;;;;;;20.27;46.95;99488.78;4956139;29;20058;-79
2020/12/18 07:38:02;;;;;;;2.22;1.30;;;;;;;20.44;46.50;99482.31;4955682;28;20031;-84
2020/12/18 07:40:27;;;;;;;2.85;1.30;;;;;;;20.39;46.67;99474.38;4955593;28;20054;-82
2020/12/18 07:42:53;;;;;;;3.35;1.08;;;;;;;20.50;46.53;99477.91;4955178;28;20151;-80
2020/12/18 07:45:19;;;;;;;4.10;1.15;;;;;;;20.31;47.40;99459.00;4955214;28;20078;-82
2020/12/18 07:47:45;;;;;;;2.33;0.93;;;;;;;20.56;46.62;99463.59;4955274;29;20038;-82
2020/12/18 07:50:11;;;;;;;2.83;1.13;;;;;;;20.61;46.54;99465.91;4955630;28;20023;-82
2020/12/18 07:52:36;;;;;;;1.95;1.00;;;;;;;20.60;46.55;99458.78;4955712;28;20034;-78
2020/12/18 07:55:04;;;;;;;5.05;1.60;;;;;;;20.76;46.37;99459.00;4955351;28;20019;-84
2020/12/18 07:57:30;;;;;;;6.00;1.40;;;;;;;21.01;45.54;99453.97;4955549;28;20114;-80
2020/12/18 08:00:08;;;;;;;7.60;2.05;;;;;;;20.92;45.78;99456.44;4955524;28;20079;-78
2020/12/18 08:02:34;;;;;;;5.00;1.58;;;;;;;20.90;45.81;99441.41;4964546;28;20023;-79
2020/12/18 08:05:01;;;;;;;4.68;1.45;;;;;;;21.11;45.40;99435.59;4973291;28;20019;-89
2020/12/18 08:07:30;;;;;;;5.57;1.42;;;;;;;21.40;44.71;99449.94;4951396;28;20552;-81
2020/12/18 08:10:01;;;;;;;5.00;1.70;;;;;;;21.02;45.61;99432.56;4957704;28;20046;-81
2020/12/18 08:12:30;;;;;;;5.63;1.48;;;;;;;21.11;45.46;99407.84;4958036;28;20019;-81
2020/12/18 08:15:14;;;;;;;5.97;1.55;;;;;;;21.59;44.29;99410.38;4957961;28;21060;-80
2020/12/18 08:17:41;;;;;;;5.97;1.90;;;;;;;21.37;44.75;99383.31;4957822;28;20565;-75
2020/12/18 08:20:11;;;;;;;11.48;5.40;;;;;;;20.96;45.68;99351.69;4957115;28;20470;-73
2020/12/18 08:22:41;;;;;;;7.40;1.60;;;;;;;20.77;46.83;99369.75;4956627;28;20027;-73
2020/12/18 08:25:06;;;;;;;;;;;;;;;;;;4957385;28;20374;-74
2020/12/18 08:27:37;;;;;;;15.10;6.70;;;;;;;21.17;45.38;99367.28;4957291;28;19929;-73
2020/12/18 08:30:05;;;;;;;6.78;1.98;;;;;;;21.11;45.75;99382.84;4956604;28;20544;-76
2020/12/18 08:32:32;;;;;;;5.68;1.75;;;;;;;21.01;45.92;99395.66;4956984;28;20089;-73
2020/12/18 08:35:03;;;;;;;6.10;1.83;;;;;;;20.74;46.69;99380.91;4956799;28;20946;-75
2020/12/18 08:37:29;;;;;;;15.80;3.65;;;;;;;21.02;46.15;99363.91;4957231;28;20060;-77
2020/12/18 08:39:55;;;;;;;6.60;1.85;;;;;;;20.82;46.75;99362.97;4956532;28;20023;-73
2020/12/18 08:42:21;;;;;;;7.55;2.20;;;;;;;21.14;46.03;99359.00;4956419;28;20033;-73
2020/12/18 08:44:47;;;;;;;6.57;1.60;;;;;;;21.20;45.79;99347.00;4956078;28;20089;-74
2020/12/18 08:47:26;;;;;;;6.65;1.65;;;;;;;21.25;45.73;99326.31;4956908;28;20100;-74
2020/12/18 08:49:53;;;;;;;;;;;;;;;21.06;46.40;99311.88;4957001;28;20089;-75
2020/12/18 08:52:29;;;;;;;10.63;1.48;;;;;;;21.16;46.13;99301.84;4966986;28;19918;-72
2020/12/18 08:55:03;;;;;;;7.35;1.48;;;;;;;21.20;45.93;99280.34;4972331;28;20090;-80
2020/12/18 08:57:32;;;;;;;11.25;2.03;;;;;;;21.11;46.22;99276.53;4966977;28;20037;-75
2020/12/18 09:00:11;;;;;;;5.20;1.38;;;;;;;21.13;46.23;99260.22;4944897;28;20741;-73
2020/12/18 09:37:17;;;;;;;11.55;2.58;;;;;;;19.71;54.06;99232.22;5150643;27;21086;-74
2020/12/18 09:39:42;;;;;;;10.48;2.00;;;;;;;19.74;54.05;99243.31;5151411;27;20035;-85
2020/12/18 09:42:08;;;;;;;8.70;2.55;;;;;;;19.61;54.47;99251.31;5150887;27;20084;-76
2020/12/18 09:44:33;;;;;;;12.57;2.65;;;;;;;19.82;53.79;99236.47;5150502;27;20108;-72
2020/12/18 09:46:59;;;;;;;11.48;2.33;;;;;;;19.67;54.57;99232.28;5149565;27;20031;-76
2020/12/18 09:49:24;;;;;;;7.68;2.35;;;;;;;19.87;53.65;99243.53;5132493;27;20143;-72
2020/12/18 09:51:50;;;;;;;15.52;3.00;;;;;;;20.04;53.12;99239.81;5132215;27;20027;-72
2020/12/18 09:54:15;;;;;;;8.93;2.47;;;;;;;20.24;52.41;99249.06;5150176;27;20027;-72
2020/12/18 09:56:41;;;;;;;16.00;2.92;;;;;;;20.50;51.31;99233.75;5129959;27;20097;-72
2020/12/18 09:59:06;;;;;;;15.85;4.15;;;;;;;20.27;51.99;99244.69;5135286;27;20023;-73
2020/12/18 10:01:32;;;;;;;15.48;3.50;;;;;;;20.53;51.01;99232.09;5134364;27;20034;-73
2020/12/18 10:03:57;;;;;;;12.95;2.55;;;;;;;20.30;51.90;99229.22;5133844;27;20076;-73
2020/12/18 10:06:26;;;;;;;13.95;3.47;;;;;;;20.50;50.97;99222.63;5115466;27;20033;-75
2020/12/18 10:08:52;;;;;;;14.27;3.27;;;;;;;20.53;51.09;99228.56;5134298;27;20471;-73
2020/12/18 10:11:18;;;;;;;19.02;3.85;;;;;;;20.48;51.39;99236.16;5134049;27;20258;-73
2020/12/18 10:13:44;;;;;;;17.70;4.07;;;;;;;20.59;50.98;99241.56;5133864;27;20411;-71
2020/12/18 10:16:09;;;;;;;19.35;5.00;;;;;;;20.74;50.57;99240.16;5116353;27;20027;-74
2020/12/18 10:18:35;;;;;;;12.18;3.83;;;;;;;20.65;50.86;99239.88;5134047;27;20084;-74
2020/12/18 10:21:03;;;;;;;11.27;3.00;;;;;;;20.73;50.65;99246.13;5133526;27;20415;-73
2020/12/18 10:23:29;;;;;;;17.95;2.70;;;;;;;20.74;50.63;99256.03;5133452;27;20051;-74
2020/12/18 10:25:55;;;;;;;14.55;3.08;;;;;;;20.82;50.37;99245.59;5140114;27;20451;-73
2020/12/18 10:28:21;;;;;;;15.38;2.58;;;;;;;20.84;50.36;99234.84;5150550;27;20022;-74
2020/12/18 10:30:46;;;;;;;7.97;2.40;;;;;;;20.86;50.34;99238.81;5150489;27;20015;-74
2020/12/18 10:33:12;;;;;;;12.05;2.67;;;;;;;20.97;49.98;99231.09;5126452;27;20723;-74
2020/12/18 10:35:37;;;;;;;11.68;2.60;;;;;;;20.94;50.20;99231.16;5134056;27;20051;-74
2020/12/18 10:38:03;;;;;;;11.38;3.08;;;;;;;20.96;50.17;99221.19;5120971;27;20027;-75
2020/12/18 10:40:30;;;;;;;7.57;1.83;;;;;;;21.14;49.75;99220.13;5103652;27;20026;-75
2020/12/18 10:42:56;;;;;;;8.30;1.67;;;;;;;21.06;50.05;99225.78;5118625;27;20405;-75
2020/12/18 10:45:21;;;;;;;8.52;1.75;;;;;;;20.92;50.38;99219.66;5119467;27;20027;-75
2020/12/18 10:47:47;;;;;;;6.93;2.08;;;;;;;21.04;50.32;99222.66;5118498;27;20030;-75
2020/12/18 10:50:12;;;;;;;11.88;2.50;;;;;;;21.12;50.02;99222.53;5126192;27;20027;-75
2020/12/18 10:52:38;;;;;;;8.48;2.05;;;;;;;21.31;49.56;99221.84;5133802;27;20377;-75
2020/12/18 10:55:04;;;;;;;7.22;1.95;;;;;;;21.45;48.92;99218.84;5117479;27;20027;-75
2020/12/18 10:57:30;;;;;;;13.60;2.67;;;;;;;21.36;49.29;99217.81;5117693;27;20020;-75
2020/12/18 10:59:55;;;;;;;9.63;2.50;;;;;;;21.40;49.10;99222.13;5117701;27;20027;-75
2020/12/18 11:02:21;;;;;;;10.25;2.40;;;;;;;21.31;49.37;99214.34;5117670;27;20023;-74
2020/12/18 11:04:46;;;;;;;10.20;2.35;;;;;;;21.55;48.29;99223.44;5135992;27;20027;-73
2020/12/18 11:07:12;;;;;;;16.70;3.10;;;;;;;21.48;48.94;99206.09;5136520;27;20473;-87
2020/12/18 11:09:39;;;;;;;9.70;2.20;;;;;;;21.46;49.12;99203.75;5117806;27;20057;-74
2020/12/18 11:12:04;;;;;;;8.63;1.98;;;;;;;21.55;48.91;99197.66;5136215;27;20027;-74
2020/12/18 11:14:30;;;;;;;10.52;2.20;;;;;;;21.64;48.92;99197.09;5131741;27;20027;-79
2020/12/18 11:16:56;;;;;;;12.90;2.92;;;;;;;21.50;49.10;99201.69;5135091;27;20034;-78
2020/12/18 11:19:23;;;;;;;15.35;3.42;;;;;;;21.45;49.37;99201.38;5135432;27;20422;-88
2020/12/18 11:21:49;;;;;;;12.25;2.97;;;;;;;21.52;49.55;99185.38;5134179;27;20023;-74
2020/12/18 11:24:15;;;;;;;11.02;2.80;;;;;;;21.52;49.60;99188.16;5134484;27;20020;-73
2020/12/18 11:26:41;;;;;;;15.70;3.17;;;;;;;21.54;49.74;99190.53;5133970;27;20496;-74
2020/12/18 11:29:07;;;;;;;22.05;8.85;;;;;;;21.54;49.80;99171.84;5116585;27;20019;-75
2020/12/18 11:31:38;;;;;;;13.27;2.65;;;;;;;21.08;51.57;99166.25;5135638;27;20028;-73
2020/12/18 11:34:03;;;;;;;9.63;2.63;;;;;;;21.18;51.51;99146.66;5121669;27;20461;-74
2020/12/18 11:36:29;;;;;;;10.82;3.20;;;;;;;21.36;51.14;99149.16;5135633;27;20052;-88
2020/12/18 11:38:54;;;;;;;13.68;2.35;;;;;;;21.63;50.42;99126.81;5132830;27;20481;-74
2020/12/18 11:41:21;;;;;;;7.95;2.50;;;;;;;21.43;51.09;99126.00;5135115;27;20480;-74
2020/12/18 11:43:48;;;;;;;12.25;2.53;;;;;;;21.44;51.01;99127.56;5131119;27;20041;-73
2020/12/18 11:46:13;;;;;;;13.00;2.78;;;;;;;21.54;50.82;99130.16;5127658;27;20031;-80
2020/12/18 11:48:39;;;;;;;13.98;3.38;;;;;;;21.39;51.20;99139.97;5134230;27;20023;-74
2020/12/18 11:51:06;;;;;;;8.73;2.47;;;;;;;21.55;50.80;99145.63;5135139;27;20015;-74
2020/12/18 11:53:31;;;;;;;16.20;3.28;;;;;;;21.59;50.79;99153.88;5134400;27;20480;-74
2020/12/18 11:55:57;;;;;;;10.98;2.90;;;;;;;21.53;50.87;99141.69;5134464;27;20098;-73
2020/12/18 11:58:22;;;;;;;6.45;1.83;;;;;;;21.83;49.90;99143.50;5134333;27;20015;-86
2020/12/18 12:00:48;;;;;;;13.15;3.15;;;;;;;21.92;49.87;99143.72;5133438;27;20046;-72
2020/12/18 12:03:13;;;;;;;8.45;1.98;;;;;;;21.68;50.65;99137.44;5131175;27;20374;-75
2020/12/18 12:05:39;;;;;;;7.05;2.25;;;;;;;21.82;50.31;99144.72;5133875;27;20023;-73
2020/12/18 12:08:04;;;;;;;6.95;1.52;;;;;;;22.07;49.61;99141.44;5133436;27;20026;-77